sensor_id;sensor_type;location;lat;lon;timestamp;temperature;humidity
26164;DHT22;13914;48.178;11.716;2023-06-10T00:01:52;17.70;13.70
26164;DHT22;13914;48.178;11.716;2023-06-10T00:04:20;17.60;13.50
26164;DHT22;13914;48.178;11.716;2023-06-10T00:06:47;17.60;13.80
26164;DHT22;13914;48.178;11.716;2023-06-10T00:09:15;17.50;13.90
26164;DHT22;13914;48.178;11.716;2023-06-10T00:11:41;17.50;13.70
26164;DHT22;13914;48.178;11.716;2023-06-10T00:14:07;17.50;13.70
26164;DHT22;13914;48.178;11.716;2023-06-10T00:16:33;17.40;14.30
26164;DHT22;13914;48.178;11.716;2023-06-10T00:18:59;17.40;14.00
26164;DHT22;13914;48.178;11.716;2023-06-10T00:21:31;17.30;14.50
26164;DHT22;13914;48.178;11.716;2023-06-10T00:24:06;17.30;15.10
26164;DHT22;13914;48.178;11.716;2023-06-10T00:26:41;17.20;15.40
26164;DHT22;13914;48.178;11.716;2023-06-10T00:29:07;17.10;14.90
26164;DHT22;13914;48.178;11.716;2023-06-10T00:31:37;17.10;14.70
26164;DHT22;13914;48.178;11.716;2023-06-10T00:34:03;17.10;14.60
26164;DHT22;13914;48.178;11.716;2023-06-10T00:36:29;17.10;14.50
26164;DHT22;13914;48.178;11.716;2023-06-10T00:38:56;17.00;14.90
26164;DHT22;13914;48.178;11.716;2023-06-10T00:41:22;17.00;15.00
26164;DHT22;13914;48.178;11.716;2023-06-10T00:43:48;17.00;14.70
26164;DHT22;13914;48.178;11.716;2023-06-10T00:46:14;16.90;15.70
26164;DHT22;13914;48.178;11.716;2023-06-10T00:48:42;16.90;15.30
26164;DHT22;13914;48.178;11.716;2023-06-10T00:51:09;16.90;15.40
26164;DHT22;13914;48.178;11.716;2023-06-10T00:53:39;16.80;15.30
26164;DHT22;13914;48.178;11.716;2023-06-10T00:56:06;16.80;15.60
26164;DHT22;13914;48.178;11.716;2023-06-10T00:58:32;16.70;15.90
26164;DHT22;13914;48.178;11.716;2023-06-10T01:00:58;16.70;15.70
26164;DHT22;13914;48.178;11.716;2023-06-10T01:03:24;16.70;16.00
26164;DHT22;13914;48.178;11.716;2023-06-10T01:06:06;16.70;15.80
26164;DHT22;13914;48.178;11.716;2023-06-10T01:08:45;16.60;15.30
26164;DHT22;13914;48.178;11.716;2023-06-10T01:11:29;16.60;14.90
26164;DHT22;13914;48.178;11.716;2023-06-10T01:14:00;16.60;15.20
26164;DHT22;13914;48.178;11.716;2023-06-10T01:16:26;16.60;15.40
26164;DHT22;13914;48.178;11.716;2023-06-10T01:18:53;16.50;15.50
26164;DHT22;13914;48.178;11.716;2023-06-10T01:21:21;16.50;15.30
26164;DHT22;13914;48.178;11.716;2023-06-10T01:23:51;16.50;15.60
26164;DHT22;13914;48.178;11.716;2023-06-10T01:26:22;16.40;15.60
26164;DHT22;13914;48.178;11.716;2023-06-10T01:29:06;16.40;15.80
26164;DHT22;13914;48.178;11.716;2023-06-10T01:34:19;16.40;16.00
26164;DHT22;13914;48.178;11.716;2023-06-10T01:36:48;16.30;16.60
26164;DHT22;13914;48.178;11.716;2023-06-10T01:39:17;16.30;16.70
26164;DHT22;13914;48.178;11.716;2023-06-10T01:41:44;16.30;16.60
26164;DHT22;13914;48.178;11.716;2023-06-10T01:44:10;16.30;16.60
26164;DHT22;13914;48.178;11.716;2023-06-10T01:46:36;16.20;15.20
26164;DHT22;13914;48.178;11.716;2023-06-10T01:49:02;16.20;15.30
26164;DHT22;13914;48.178;11.716;2023-06-10T01:51:28;16.20;15.00
26164;DHT22;13914;48.178;11.716;2023-06-10T01:53:55;16.20;15.00
26164;DHT22;13914;48.178;11.716;2023-06-10T01:56:21;16.20;15.00
26164;DHT22;13914;48.178;11.716;2023-06-10T01:58:47;16.20;14.90
26164;DHT22;13914;48.178;11.716;2023-06-10T02:01:13;16.20;15.10
26164;DHT22;13914;48.178;11.716;2023-06-10T02:03:39;16.10;15.00
26164;DHT22;13914;48.178;11.716;2023-06-10T02:06:05;16.10;15.10
26164;DHT22;13914;48.178;11.716;2023-06-10T02:08:31;16.10;15.10
26164;DHT22;13914;48.178;11.716;2023-06-10T02:10:57;16.10;15.00
26164;DHT22;13914;48.178;11.716;2023-06-10T02:13:23;16.10;15.00
26164;DHT22;13914;48.178;11.716;2023-06-10T02:15:48;16.00;15.20
26164;DHT22;13914;48.178;11.716;2023-06-10T02:18:14;16.00;15.10
26164;DHT22;13914;48.178;11.716;2023-06-10T02:20:40;16.00;15.10
26164;DHT22;13914;48.178;11.716;2023-06-10T02:23:05;16.00;15.30
26164;DHT22;13914;48.178;11.716;2023-06-10T02:25:31;15.90;15.20
26164;DHT22;13914;48.178;11.716;2023-06-10T02:27:57;15.90;15.10
26164;DHT22;13914;48.178;11.716;2023-06-10T02:30:23;15.90;15.20
26164;DHT22;13914;48.178;11.716;2023-06-10T02:32:48;15.80;15.20
26164;DHT22;13914;48.178;11.716;2023-06-10T02:35:16;15.80;15.30
26164;DHT22;13914;48.178;11.716;2023-06-10T02:37:43;15.80;15.20
26164;DHT22;13914;48.178;11.716;2023-06-10T02:40:09;15.80;15.40
26164;DHT22;13914;48.178;11.716;2023-06-10T02:42:36;15.70;15.30
26164;DHT22;13914;48.178;11.716;2023-06-10T02:45:02;15.70;15.30
26164;DHT22;13914;48.178;11.716;2023-06-10T02:47:28;15.70;15.30
26164;DHT22;13914;48.178;11.716;2023-06-10T02:49:54;15.60;15.30
26164;DHT22;13914;48.178;11.716;2023-06-10T02:52:20;15.60;15.30
26164;DHT22;13914;48.178;11.716;2023-06-10T02:54:46;15.60;15.30
26164;DHT22;13914;48.178;11.716;2023-06-10T02:57:11;15.60;15.70
26164;DHT22;13914;48.178;11.716;2023-06-10T02:59:39;15.50;15.40
26164;DHT22;13914;48.178;11.716;2023-06-10T03:02:05;15.50;15.40
26164;DHT22;13914;48.178;11.716;2023-06-10T03:04:31;15.50;15.60
26164;DHT22;13914;48.178;11.716;2023-06-10T03:06:57;15.50;15.50
26164;DHT22;13914;48.178;11.716;2023-06-10T03:09:23;15.40;17.10
26164;DHT22;13914;48.178;11.716;2023-06-10T03:11:49;15.40;16.50
26164;DHT22;13914;48.178;11.716;2023-06-10T03:14:14;15.40;16.00
26164;DHT22;13914;48.178;11.716;2023-06-10T03:16:40;15.30;16.50
26164;DHT22;13914;48.178;11.716;2023-06-10T03:19:08;15.20;16.40
26164;DHT22;13914;48.178;11.716;2023-06-10T03:21:36;15.20;17.00
26164;DHT22;13914;48.178;11.716;2023-06-10T03:24:03;15.20;16.40
26164;DHT22;13914;48.178;11.716;2023-06-10T03:26:29;15.20;16.60
26164;DHT22;13914;48.178;11.716;2023-06-10T03:28:55;15.20;16.30
26164;DHT22;13914;48.178;11.716;2023-06-10T03:31:21;15.20;16.00
26164;DHT22;13914;48.178;11.716;2023-06-10T03:33:47;15.20;16.50
26164;DHT22;13914;48.178;11.716;2023-06-10T03:36:13;15.10;16.70
26164;DHT22;13914;48.178;11.716;2023-06-10T03:38:38;15.10;16.20
26164;DHT22;13914;48.178;11.716;2023-06-10T03:41:04;15.10;16.50
26164;DHT22;13914;48.178;11.716;2023-06-10T03:43:30;15.00;16.10
26164;DHT22;13914;48.178;11.716;2023-06-10T03:45:56;15.00;16.10
26164;DHT22;13914;48.178;11.716;2023-06-10T03:48:22;15.00;16.90
26164;DHT22;13914;48.178;11.716;2023-06-10T03:50:48;15.00;16.80
26164;DHT22;13914;48.178;11.716;2023-06-10T03:53:16;15.00;16.90
26164;DHT22;13914;48.178;11.716;2023-06-10T03:55:42;15.00;17.70
26164;DHT22;13914;48.178;11.716;2023-06-10T03:58:08;14.90;17.50
26164;DHT22;13914;48.178;11.716;2023-06-10T04:00:34;14.90;16.70
26164;DHT22;13914;48.178;11.716;2023-06-10T04:03:08;14.90;16.90
26164;DHT22;13914;48.178;11.716;2023-06-10T04:05:35;14.90;16.50
26164;DHT22;13914;48.178;11.716;2023-06-10T04:08:01;14.90;16.40
26164;DHT22;13914;48.178;11.716;2023-06-10T04:10:27;14.90;17.30
26164;DHT22;13914;48.178;11.716;2023-06-10T04:12:53;14.80;16.70
26164;DHT22;13914;48.178;11.716;2023-06-10T04:15:19;14.90;16.80
26164;DHT22;13914;48.178;11.716;2023-06-10T04:17:45;14.80;17.40
26164;DHT22;13914;48.178;11.716;2023-06-10T04:20:11;14.80;17.10
26164;DHT22;13914;48.178;11.716;2023-06-10T04:22:37;14.80;17.40
26164;DHT22;13914;48.178;11.716;2023-06-10T04:25:02;14.80;17.50
26164;DHT22;13914;48.178;11.716;2023-06-10T04:27:29;14.80;18.60
26164;DHT22;13914;48.178;11.716;2023-06-10T04:29:55;14.80;18.10
26164;DHT22;13914;48.178;11.716;2023-06-10T04:32:21;14.70;18.00
26164;DHT22;13914;48.178;11.716;2023-06-10T04:34:47;14.80;18.30
26164;DHT22;13914;48.178;11.716;2023-06-10T04:37:13;14.80;19.40
26164;DHT22;13914;48.178;11.716;2023-06-10T04:39:38;14.80;18.80
26164;DHT22;13914;48.178;11.716;2023-06-10T04:42:04;14.80;18.60
26164;DHT22;13914;48.178;11.716;2023-06-10T04:44:31;14.80;19.50
26164;DHT22;13914;48.178;11.716;2023-06-10T04:46:56;14.80;19.00
26164;DHT22;13914;48.178;11.716;2023-06-10T04:49:22;14.80;19.30
26164;DHT22;13914;48.178;11.716;2023-06-10T04:51:48;14.80;19.10
26164;DHT22;13914;48.178;11.716;2023-06-10T04:54:14;14.90;18.70
26164;DHT22;13914;48.178;11.716;2023-06-10T04:56:39;14.90;18.10
26164;DHT22;13914;48.178;11.716;2023-06-10T04:59:05;14.90;18.60
26164;DHT22;13914;48.178;11.716;2023-06-10T05:01:31;14.90;18.80
26164;DHT22;13914;48.178;11.716;2023-06-10T05:03:56;14.90;18.10
26164;DHT22;13914;48.178;11.716;2023-06-10T05:06:22;14.90;17.80
26164;DHT22;13914;48.178;11.716;2023-06-10T05:08:48;15.00;17.40
26164;DHT22;13914;48.178;11.716;2023-06-10T05:11:14;15.00;17.30
26164;DHT22;13914;48.178;11.716;2023-06-10T05:13:41;15.00;17.50
26164;DHT22;13914;48.178;11.716;2023-06-10T05:16:08;15.00;17.50
26164;DHT22;13914;48.178;11.716;2023-06-10T05:18:34;15.00;17.00
26164;DHT22;13914;48.178;11.716;2023-06-10T05:21:01;15.00;17.40
26164;DHT22;13914;48.178;11.716;2023-06-10T05:23:28;15.10;18.30
26164;DHT22;13914;48.178;11.716;2023-06-10T05:25:54;15.10;17.70
26164;DHT22;13914;48.178;11.716;2023-06-10T05:28:20;15.10;17.20
26164;DHT22;13914;48.178;11.716;2023-06-10T05:30:46;15.20;17.20
26164;DHT22;13914;48.178;11.716;2023-06-10T05:33:11;15.20;17.30
26164;DHT22;13914;48.178;11.716;2023-06-10T05:35:37;15.20;17.40
26164;DHT22;13914;48.178;11.716;2023-06-10T05:38:03;15.20;17.00
26164;DHT22;13914;48.178;11.716;2023-06-10T05:40:29;15.30;17.80
26164;DHT22;13914;48.178;11.716;2023-06-10T05:42:55;15.30;18.50
26164;DHT22;13914;48.178;11.716;2023-06-10T05:45:20;15.30;18.20
26164;DHT22;13914;48.178;11.716;2023-06-10T05:47:46;15.40;17.60
26164;DHT22;13914;48.178;11.716;2023-06-10T05:50:12;15.40;19.30
26164;DHT22;13914;48.178;11.716;2023-06-10T05:52:38;15.50;18.60
26164;DHT22;13914;48.178;11.716;2023-06-10T05:55:06;15.50;20.10
26164;DHT22;13914;48.178;11.716;2023-06-10T05:57:32;15.50;18.70
26164;DHT22;13914;48.178;11.716;2023-06-10T05:59:58;15.60;18.70
26164;DHT22;13914;48.178;11.716;2023-06-10T06:02:24;15.60;18.90
26164;DHT22;13914;48.178;11.716;2023-06-10T06:04:49;15.60;18.30
26164;DHT22;13914;48.178;11.716;2023-06-10T06:07:15;15.70;20.00
26164;DHT22;13914;48.178;11.716;2023-06-10T06:09:41;15.80;19.40
26164;DHT22;13914;48.178;11.716;2023-06-10T06:12:07;15.80;19.00
26164;DHT22;13914;48.178;11.716;2023-06-10T06:14:37;15.90;19.00
26164;DHT22;13914;48.178;11.716;2023-06-10T06:17:07;15.90;19.40
26164;DHT22;13914;48.178;11.716;2023-06-10T06:19:33;16.00;19.30
26164;DHT22;13914;48.178;11.716;2023-06-10T06:21:59;16.00;19.20
26164;DHT22;13914;48.178;11.716;2023-06-10T06:24:25;16.00;20.40
26164;DHT22;13914;48.178;11.716;2023-06-10T06:26:50;16.10;18.80
26164;DHT22;13914;48.178;11.716;2023-06-10T06:29:16;16.10;19.00
26164;DHT22;13914;48.178;11.716;2023-06-10T06:31:42;16.10;19.00
26164;DHT22;13914;48.178;11.716;2023-06-10T06:34:08;16.20;18.90
26164;DHT22;13914;48.178;11.716;2023-06-10T06:36:33;16.20;20.00
26164;DHT22;13914;48.178;11.716;2023-06-10T06:38:59;16.30;19.30
26164;DHT22;13914;48.178;11.716;2023-06-10T06:41:28;16.40;20.30
26164;DHT22;13914;48.178;11.716;2023-06-10T06:43:54;16.40;19.00
26164;DHT22;13914;48.178;11.716;2023-06-10T06:46:20;16.40;20.00
26164;DHT22;13914;48.178;11.716;2023-06-10T06:48:48;16.50;19.10
26164;DHT22;13914;48.178;11.716;2023-06-10T06:51:14;16.60;20.20
26164;DHT22;13914;48.178;11.716;2023-06-10T06:53:39;16.60;20.80
26164;DHT22;13914;48.178;11.716;2023-06-10T06:56:10;16.70;20.10
26164;DHT22;13914;48.178;11.716;2023-06-10T06:58:37;16.80;21.00
26164;DHT22;13914;48.178;11.716;2023-06-10T07:01:03;16.90;22.00
26164;DHT22;13914;48.178;11.716;2023-06-10T07:03:28;17.10;21.40
26164;DHT22;13914;48.178;11.716;2023-06-10T07:05:54;17.20;22.30
26164;DHT22;13914;48.178;11.716;2023-06-10T07:08:20;17.30;22.10
26164;DHT22;13914;48.178;11.716;2023-06-10T07:10:46;17.40;22.90
26164;DHT22;13914;48.178;11.716;2023-06-10T07:13:11;17.60;23.20
26164;DHT22;13914;48.178;11.716;2023-06-10T07:15:38;17.70;21.80
26164;DHT22;13914;48.178;11.716;2023-06-10T07:18:04;17.80;21.10
26164;DHT22;13914;48.178;11.716;2023-06-10T07:20:30;18.00;20.40
26164;DHT22;13914;48.178;11.716;2023-06-10T07:22:56;18.10;21.50
26164;DHT22;13914;48.178;11.716;2023-06-10T07:25:21;18.30;21.70
26164;DHT22;13914;48.178;11.716;2023-06-10T07:27:47;18.40;21.70
26164;DHT22;13914;48.178;11.716;2023-06-10T07:30:13;18.60;21.60
26164;DHT22;13914;48.178;11.716;2023-06-10T07:32:39;18.70;22.10
26164;DHT22;13914;48.178;11.716;2023-06-10T07:35:09;18.90;22.10
26164;DHT22;13914;48.178;11.716;2023-06-10T07:37:36;19.10;21.70
26164;DHT22;13914;48.178;11.716;2023-06-10T07:40:02;19.20;21.50
26164;DHT22;13914;48.178;11.716;2023-06-10T07:42:28;19.30;21.30
26164;DHT22;13914;48.178;11.716;2023-06-10T07:44:54;19.40;21.60
26164;DHT22;13914;48.178;11.716;2023-06-10T07:47:19;19.60;21.20
26164;DHT22;13914;48.178;11.716;2023-06-10T07:49:45;19.70;20.60
26164;DHT22;13914;48.178;11.716;2023-06-10T07:52:11;19.90;20.10
26164;DHT22;13914;48.178;11.716;2023-06-10T07:54:37;20.00;20.10
26164;DHT22;13914;48.178;11.716;2023-06-10T07:57:02;20.20;20.20
26164;DHT22;13914;48.178;11.716;2023-06-10T07:59:28;20.30;19.60
26164;DHT22;13914;48.178;11.716;2023-06-10T08:01:54;20.50;19.60
26164;DHT22;13914;48.178;11.716;2023-06-10T08:04:20;20.60;19.50
26164;DHT22;13914;48.178;11.716;2023-06-10T08:06:46;20.60;19.50
26164;DHT22;13914;48.178;11.716;2023-06-10T08:09:11;20.80;19.40
26164;DHT22;13914;48.178;11.716;2023-06-10T08:11:37;20.80;19.10
26164;DHT22;13914;48.178;11.716;2023-06-10T08:14:03;21.00;19.10
26164;DHT22;13914;48.178;11.716;2023-06-10T08:16:29;21.10;18.80
26164;DHT22;13914;48.178;11.716;2023-06-10T08:18:54;21.20;18.70
26164;DHT22;13914;48.178;11.716;2023-06-10T08:21:20;21.30;18.70
26164;DHT22;13914;48.178;11.716;2023-06-10T08:23:46;21.50;18.30
26164;DHT22;13914;48.178;11.716;2023-06-10T08:26:12;21.60;18.50
26164;DHT22;13914;48.178;11.716;2023-06-10T08:28:37;21.70;18.40
26164;DHT22;13914;48.178;11.716;2023-06-10T08:31:03;21.90;18.20
26164;DHT22;13914;48.178;11.716;2023-06-10T08:33:29;22.00;17.90
26164;DHT22;13914;48.178;11.716;2023-06-10T08:35:55;22.00;17.50
26164;DHT22;13914;48.178;11.716;2023-06-10T08:38:20;22.10;17.70
26164;DHT22;13914;48.178;11.716;2023-06-10T08:40:46;22.20;17.40
26164;DHT22;13914;48.178;11.716;2023-06-10T08:43:21;22.40;17.30
26164;DHT22;13914;48.178;11.716;2023-06-10T08:45:50;22.50;17.80
26164;DHT22;13914;48.178;11.716;2023-06-10T08:48:19;22.60;16.60
26164;DHT22;13914;48.178;11.716;2023-06-10T08:50:46;22.60;16.30
26164;DHT22;13914;48.178;11.716;2023-06-10T08:53:18;22.60;15.60
26164;DHT22;13914;48.178;11.716;2023-06-10T08:55:48;22.50;16.50
26164;DHT22;13914;48.178;11.716;2023-06-10T08:58:17;22.60;15.60
26164;DHT22;13914;48.178;11.716;2023-06-10T09:00:44;22.60;15.70
26164;DHT22;13914;48.178;11.716;2023-06-10T09:03:10;22.70;15.80
26164;DHT22;13914;48.178;11.716;2023-06-10T09:05:37;22.90;15.60
26164;DHT22;13914;48.178;11.716;2023-06-10T09:08:06;22.90;15.40
26164;DHT22;13914;48.178;11.716;2023-06-10T09:10:35;23.10;15.80
26164;DHT22;13914;48.178;11.716;2023-06-10T09:13:01;23.10;14.10
26164;DHT22;13914;48.178;11.716;2023-06-10T09:15:27;23.10;15.30
26164;DHT22;13914;48.178;11.716;2023-06-10T09:17:53;23.00;15.00
26164;DHT22;13914;48.178;11.716;2023-06-10T09:20:19;23.10;15.10
26164;DHT22;13914;48.178;11.716;2023-06-10T09:22:44;23.20;14.50
26164;DHT22;13914;48.178;11.716;2023-06-10T09:25:12;23.20;13.80
26164;DHT22;13914;48.178;11.716;2023-06-10T09:27:50;23.20;13.90
26164;DHT22;13914;48.178;11.716;2023-06-10T09:30:32;23.40;14.10
26164;DHT22;13914;48.178;11.716;2023-06-10T09:33:11;23.50;14.00
26164;DHT22;13914;48.178;11.716;2023-06-10T09:35:48;23.60;13.20
26164;DHT22;13914;48.178;11.716;2023-06-10T09:38:19;23.70;13.70
26164;DHT22;13914;48.178;11.716;2023-06-10T09:40:50;23.80;13.50
26164;DHT22;13914;48.178;11.716;2023-06-10T09:43:17;23.90;12.70
26164;DHT22;13914;48.178;11.716;2023-06-10T09:45:43;24.00;13.10
26164;DHT22;13914;48.178;11.716;2023-06-10T09:48:09;24.00;12.70
26164;DHT22;13914;48.178;11.716;2023-06-10T09:50:41;24.10;13.10
26164;DHT22;13914;48.178;11.716;2023-06-10T09:53:09;24.20;12.50
26164;DHT22;13914;48.178;11.716;2023-06-10T09:55:38;24.20;12.00
26164;DHT22;13914;48.178;11.716;2023-06-10T09:58:04;24.20;11.60
26164;DHT22;13914;48.178;11.716;2023-06-10T10:00:32;24.30;12.30
26164;DHT22;13914;48.178;11.716;2023-06-10T10:02:59;24.50;12.40
26164;DHT22;13914;48.178;11.716;2023-06-10T10:05:25;24.50;12.00
26164;DHT22;13914;48.178;11.716;2023-06-10T10:07:52;24.60;13.20
26164;DHT22;13914;48.178;11.716;2023-06-10T10:10:20;24.70;12.20
26164;DHT22;13914;48.178;11.716;2023-06-10T10:12:47;24.80;12.70
26164;DHT22;13914;48.178;11.716;2023-06-10T10:15:16;24.90;10.80
26164;DHT22;13914;48.178;11.716;2023-06-10T10:17:49;24.90;11.30
26164;DHT22;13914;48.178;11.716;2023-06-10T10:20:26;25.10;12.40
26164;DHT22;13914;48.178;11.716;2023-06-10T10:22:57;25.20;12.40
26164;DHT22;13914;48.178;11.716;2023-06-10T10:25:27;25.20;10.40
26164;DHT22;13914;48.178;11.716;2023-06-10T10:28:10;25.10;10.30
26164;DHT22;13914;48.178;11.716;2023-06-10T10:30:52;25.10;10.70
26164;DHT22;13914;48.178;11.716;2023-06-10T10:35:51;25.10;9.60
26164;DHT22;13914;48.178;11.716;2023-06-10T10:38:19;25.20;10.30
26164;DHT22;13914;48.178;11.716;2023-06-10T10:40:45;25.30;10.80
26164;DHT22;13914;48.178;11.716;2023-06-10T10:43:13;25.40;9.90
26164;DHT22;13914;48.178;11.716;2023-06-10T10:45:39;25.50;10.70
26164;DHT22;13914;48.178;11.716;2023-06-10T10:48:08;25.70;10.70
26164;DHT22;13914;48.178;11.716;2023-06-10T10:50:37;25.90;10.30
26164;DHT22;13914;48.178;11.716;2023-06-10T10:53:04;26.00;10.50
26164;DHT22;13914;48.178;11.716;2023-06-10T10:55:31;26.00;9.00
26164;DHT22;13914;48.178;11.716;2023-06-10T10:58:04;25.90;9.40
26164;DHT22;13914;48.178;11.716;2023-06-10T11:02:59;26.10;9.30
26164;DHT22;13914;48.178;11.716;2023-06-10T11:05:48;26.20;7.90
26164;DHT22;13914;48.178;11.716;2023-06-10T11:08:14;26.30;10.10
26164;DHT22;13914;48.178;11.716;2023-06-10T11:11:02;26.40;10.00
26164;DHT22;13914;48.178;11.716;2023-06-10T11:13:58;26.60;10.10
26164;DHT22;13914;48.178;11.716;2023-06-10T11:16:29;26.70;9.70
26164;DHT22;13914;48.178;11.716;2023-06-10T11:18:55;26.80;8.70
26164;DHT22;13914;48.178;11.716;2023-06-10T11:21:24;26.80;6.80
26164;DHT22;13914;48.178;11.716;2023-06-10T11:23:51;26.70;7.10
26164;DHT22;13914;48.178;11.716;2023-06-10T11:31:24;26.70;8.80
26164;DHT22;13914;48.178;11.716;2023-06-10T11:34:02;26.80;9.00
26164;DHT22;13914;48.178;11.716;2023-06-10T11:36:30;27.00;9.60
26164;DHT22;13914;48.178;11.716;2023-06-10T11:39:02;27.20;8.30
26164;DHT22;13914;48.178;11.716;2023-06-10T11:41:31;27.30;8.00
26164;DHT22;13914;48.178;11.716;2023-06-10T11:44:03;27.30;7.50
26164;DHT22;13914;48.178;11.716;2023-06-10T11:46:30;27.40;8.70
26164;DHT22;13914;48.178;11.716;2023-06-10T11:48:56;27.40;5.70
26164;DHT22;13914;48.178;11.716;2023-06-10T11:51:28;27.20;6.50
26164;DHT22;13914;48.178;11.716;2023-06-10T11:53:56;27.30;7.50
26164;DHT22;13914;48.178;11.716;2023-06-10T11:56:25;27.40;7.80
26164;DHT22;13914;48.178;11.716;2023-06-10T11:59:00;27.20;5.00
26164;DHT22;13914;48.178;11.716;2023-06-10T12:01:33;27.20;5.50
26164;DHT22;13914;48.178;11.716;2023-06-10T12:06:27;27.40;6.20
26164;DHT22;13914;48.178;11.716;2023-06-10T12:08:54;27.20;4.40
26164;DHT22;13914;48.178;11.716;2023-06-10T12:11:21;27.30;5.30
26164;DHT22;13914;48.178;11.716;2023-06-10T12:13:47;27.30;5.00
26164;DHT22;13914;48.178;11.716;2023-06-10T12:16:17;27.40;4.80
26164;DHT22;13914;48.178;11.716;2023-06-10T12:18:45;27.30;4.90
26164;DHT22;13914;48.178;11.716;2023-06-10T12:21:19;27.40;4.60
26164;DHT22;13914;48.178;11.716;2023-06-10T12:24:09;27.30;4.90
26164;DHT22;13914;48.178;11.716;2023-06-10T12:26:44;27.30;5.60
26164;DHT22;13914;48.178;11.716;2023-06-10T12:29:31;27.30;4.90
26164;DHT22;13914;48.178;11.716;2023-06-10T12:32:04;27.20;5.90
26164;DHT22;13914;48.178;11.716;2023-06-10T12:34:36;27.20;6.60
26164;DHT22;13914;48.178;11.716;2023-06-10T12:37:06;27.10;6.50
26164;DHT22;13914;48.178;11.716;2023-06-10T12:39:39;27.00;6.80
26164;DHT22;13914;48.178;11.716;2023-06-10T12:42:06;26.90;7.10
26164;DHT22;13914;48.178;11.716;2023-06-10T12:44:39;26.90;6.80
26164;DHT22;13914;48.178;11.716;2023-06-10T12:47:09;26.70;6.90
26164;DHT22;13914;48.178;11.716;2023-06-10T12:49:36;26.70;7.70
26164;DHT22;13914;48.178;11.716;2023-06-10T12:52:03;26.80;7.70
26164;DHT22;13914;48.178;11.716;2023-06-10T12:54:29;26.80;7.70
26164;DHT22;13914;48.178;11.716;2023-06-10T12:56:55;26.80;8.70
26164;DHT22;13914;48.178;11.716;2023-06-10T12:59:21;26.90;7.90
26164;DHT22;13914;48.178;11.716;2023-06-10T13:01:50;26.90;7.80
26164;DHT22;13914;48.178;11.716;2023-06-10T13:04:17;26.70;8.20
26164;DHT22;13914;48.178;11.716;2023-06-10T13:06:44;26.70;7.80
26164;DHT22;13914;48.178;11.716;2023-06-10T13:09:09;26.70;7.90
26164;DHT22;13914;48.178;11.716;2023-06-10T13:11:36;26.70;7.90
26164;DHT22;13914;48.178;11.716;2023-06-10T13:14:03;26.60;7.40
26164;DHT22;13914;48.178;11.716;2023-06-10T13:16:31;26.50;7.90
26164;DHT22;13914;48.178;11.716;2023-06-10T13:18:58;26.50;7.50
26164;DHT22;13914;48.178;11.716;2023-06-10T13:21:23;26.40;7.30
26164;DHT22;13914;48.178;11.716;2023-06-10T13:23:49;26.40;8.20
26164;DHT22;13914;48.178;11.716;2023-06-10T13:26:15;26.40;8.10
26164;DHT22;13914;48.178;11.716;2023-06-10T13:28:45;26.50;7.60
26164;DHT22;13914;48.178;11.716;2023-06-10T13:31:11;26.50;7.90
26164;DHT22;13914;48.178;11.716;2023-06-10T13:33:37;26.50;8.10
26164;DHT22;13914;48.178;11.716;2023-06-10T13:36:03;26.50;8.80
26164;DHT22;13914;48.178;11.716;2023-06-10T13:38:29;26.50;8.30
26164;DHT22;13914;48.178;11.716;2023-06-10T13:40:54;26.60;8.90
26164;DHT22;13914;48.178;11.716;2023-06-10T13:43:20;26.60;7.90
26164;DHT22;13914;48.178;11.716;2023-06-10T13:45:46;26.60;8.20
26164;DHT22;13914;48.178;11.716;2023-06-10T13:48:11;26.50;8.30
26164;DHT22;13914;48.178;11.716;2023-06-10T13:50:38;26.60;8.80
26164;DHT22;13914;48.178;11.716;2023-06-10T13:53:03;26.70;8.20
26164;DHT22;13914;48.178;11.716;2023-06-10T13:55:29;26.50;7.50
26164;DHT22;13914;48.178;11.716;2023-06-10T13:57:55;26.40;8.10
26164;DHT22;13914;48.178;11.716;2023-06-10T14:00:21;26.30;7.30
26164;DHT22;13914;48.178;11.716;2023-06-10T14:02:47;26.30;7.80
26164;DHT22;13914;48.178;11.716;2023-06-10T14:05:12;26.40;8.00
26164;DHT22;13914;48.178;11.716;2023-06-10T14:07:38;26.30;8.00
26164;DHT22;13914;48.178;11.716;2023-06-10T14:10:06;26.10;7.30
26164;DHT22;13914;48.178;11.716;2023-06-10T14:12:34;26.20;7.60
26164;DHT22;13914;48.178;11.716;2023-06-10T14:15:00;26.20;7.20
26164;DHT22;13914;48.178;11.716;2023-06-10T14:17:26;26.10;7.10
26164;DHT22;13914;48.178;11.716;2023-06-10T14:19:52;26.10;8.20
26164;DHT22;13914;48.178;11.716;2023-06-10T14:22:18;26.20;6.50
26164;DHT22;13914;48.178;11.716;2023-06-10T14:24:43;26.20;8.00
26164;DHT22;13914;48.178;11.716;2023-06-10T14:27:09;26.30;6.90
26164;DHT22;13914;48.178;11.716;2023-06-10T14:29:35;26.10;7.30
26164;DHT22;13914;48.178;11.716;2023-06-10T14:32:00;26.00;5.60
26164;DHT22;13914;48.178;11.716;2023-06-10T14:34:26;25.90;6.50
26164;DHT22;13914;48.178;11.716;2023-06-10T14:36:55;26.00;6.80
26164;DHT22;13914;48.178;11.716;2023-06-10T14:39:21;26.00;7.20
26164;DHT22;13914;48.178;11.716;2023-06-10T14:41:46;26.10;6.90
26164;DHT22;13914;48.178;11.716;2023-06-10T14:44:13;26.00;6.40
26164;DHT22;13914;48.178;11.716;2023-06-10T14:46:38;26.00;6.90
26164;DHT22;13914;48.178;11.716;2023-06-10T14:49:04;26.00;7.30
26164;DHT22;13914;48.178;11.716;2023-06-10T14:51:30;26.00;7.60
26164;DHT22;13914;48.178;11.716;2023-06-10T14:53:56;26.00;8.40
26164;DHT22;13914;48.178;11.716;2023-06-10T14:56:22;26.00;8.40
26164;DHT22;13914;48.178;11.716;2023-06-10T14:58:47;26.10;8.40
26164;DHT22;13914;48.178;11.716;2023-06-10T15:01:13;26.20;8.50
26164;DHT22;13914;48.178;11.716;2023-06-10T15:03:39;26.20;8.50
26164;DHT22;13914;48.178;11.716;2023-06-10T15:06:05;26.10;7.80
26164;DHT22;13914;48.178;11.716;2023-06-10T15:08:30;26.10;8.00
26164;DHT22;13914;48.178;11.716;2023-06-10T15:10:56;26.00;7.30
26164;DHT22;13914;48.178;11.716;2023-06-10T15:13:22;25.90;8.30
26164;DHT22;13914;48.178;11.716;2023-06-10T15:15:48;25.90;7.10
26164;DHT22;13914;48.178;11.716;2023-06-10T15:18:14;25.90;7.60
26164;DHT22;13914;48.178;11.716;2023-06-10T15:20:40;25.80;7.10
26164;DHT22;13914;48.178;11.716;2023-06-10T15:23:05;25.70;7.30
26164;DHT22;13914;48.178;11.716;2023-06-10T15:25:33;25.80;7.60
26164;DHT22;13914;48.178;11.716;2023-06-10T15:27:59;25.60;7.30
26164;DHT22;13914;48.178;11.716;2023-06-10T15:30:25;25.70;8.10
26164;DHT22;13914;48.178;11.716;2023-06-10T15:32:51;25.70;8.30
26164;DHT22;13914;48.178;11.716;2023-06-10T15:35:17;25.80;7.50
26164;DHT22;13914;48.178;11.716;2023-06-10T15:37:42;25.70;8.00